Time;durP1;ratioP1;P1;durP2;ratioP2;P2;SDS_P1;SDS_P2;PMS_P1;PMS_P2;Temp;Humidity;BMP_temperature;BMP_pressure;BME280_temperature;BME280_humidity;BME280_pressure;Samples;Min_cycle;Max_cycle;Signal;HPM_P1;HPM_P2
2021/08/27 00:00:20;;;;;;;8.78;4.60;;;;;;;12.04;79.76;97142.98;1709799;83;21044;-72
2021/08/27 00:02:48;;;;;;;7.05;4.50;;;;;;;12.05;79.70;97136.80;1719407;83;20985;-72
2021/08/27 00:05:15;;;;;;;7.55;4.97;;;;;;;12.11;79.32;97140.92;1727147;82;21014;-72
2021/08/27 00:07:41;;;;;;;7.37;4.67;;;;;;;12.17;79.04;97148.61;1723525;83;21582;-72
2021/08/27 00:10:09;;;;;;;7.58;5.10;;;;;;;12.25;78.87;97144.24;1721904;83;21401;-72
2021/08/27 00:12:36;;;;;;;12.98;5.10;;;;;;;12.31;78.92;97148.36;1721533;83;20995;-72
2021/08/27 00:15:07;;;;;;;7.83;4.75;;;;;;;12.30;78.51;97159.48;1704908;83;21001;-72
2021/08/27 00:17:33;;;;;;;7.37;4.58;;;;;;;12.32;78.69;97151.41;1692295;83;21009;-71
2021/08/27 00:20:00;;;;;;;7.12;4.78;;;;;;;12.22;78.71;97149.23;1692101;84;20973;-72
2021/08/27 00:22:28;;;;;;;9.18;5.33;;;;;;;12.25;78.33;97148.23;1692179;84;21052;-72
2021/08/27 00:24:56;;;;;;;12.58;5.85;;;;;;;12.20;78.53;97144.45;1692126;84;21048;-72
2021/08/27 00:27:22;;;;;;;9.35;5.20;;;;;;;12.18;78.53;97146.80;1697968;83;21026;-72
2021/08/27 00:29:49;;;;;;;11.18;5.50;;;;;;;12.17;77.99;97138.44;1691993;85;21012;-72
2021/08/27 00:32:16;;;;;;;9.98;5.08;;;;;;;12.16;77.75;97136.24;1692167;84;21036;-71
2021/08/27 00:34:43;;;;;;;9.18;5.12;;;;;;;12.14;78.08;97136.80;1691893;85;21527;-72
2021/08/27 00:37:09;;;;;;;9.78;5.42;;;;;;;12.12;77.84;97139.53;1692267;83;21072;-72
2021/08/27 00:39:36;;;;;;;7.30;4.47;;;;;;;12.12;77.42;97137.33;1721130;83;20975;-72
2021/08/27 00:42:03;;;;;;;9.43;5.10;;;;;;;12.09;78.05;97141.48;1721529;83;21031;-72
2021/08/27 00:44:30;;;;;;;8.08;4.97;;;;;;;12.09;77.81;97141.48;1721713;83;20991;-72
2021/08/27 00:46:56;;;;;;;8.05;5.40;;;;;;;12.08;77.70;97143.75;1721907;83;21066;-72
2021/08/27 00:49:23;;;;;;;10.58;5.87;;;;;;;12.03;78.51;97141.27;1718246;83;21025;-73
2021/08/27 00:51:50;;;;;;;9.53;5.28;;;;;;;12.00;78.10;97134.80;1721635;83;21517;-72
2021/08/27 00:54:18;;;;;;;8.58;5.47;;;;;;;11.98;78.22;97128.70;1721613;83;22049;-71
2021/08/27 00:56:45;;;;;;;8.98;5.17;;;;;;;11.96;78.44;97143.85;1707398;83;20981;-71
2021/08/27 00:59:11;;;;;;;9.88;4.83;;;;;;;11.93;77.94;97147.98;1697107;83;21009;-71
2021/08/27 01:01:37;;;;;;;9.28;5.33;;;;;;;11.94;77.60;97139.94;1691885;85;21017;-71
2021/08/27 01:04:04;;;;;;;8.25;4.78;;;;;;;11.93;78.47;97140.02;1691885;85;21052;-71
2021/08/27 01:06:45;;;;;;;8.28;4.95;;;;;;;11.89;78.66;97144.13;1691950;85;21491;-71
2021/08/27 01:09:33;;;;;;;8.75;4.87;;;;;;;11.85;78.72;97141.27;1664494;83;21127;-71
2021/08/27 01:12:22;;;;;;;8.78;5.47;;;;;;;11.79;79.07;97142.86;1693293;83;21009;-71
2021/08/27 01:14:53;;;;;;;11.75;5.33;;;;;;;11.74;79.17;97139.56;1691863;84;21060;-71
2021/08/27 01:17:31;;;;;;;9.10;5.50;;;;;;;11.72;78.45;97139.64;1691815;84;21033;-71
2021/08/27 01:20:33;;;;;;;8.78;5.10;;;;;;;11.76;78.19;97137.72;1691565;84;21503;-71
2021/08/27 01:23:43;;;;;;;8.68;4.97;;;;;;;11.77;78.00;97128.81;1692560;85;21396;-71
2021/08/27 01:26:10;;;;;;;7.87;5.10;;;;;;;11.78;77.69;97126.55;1692624;85;21005;-71
2021/08/27 01:28:42;;;;;;;8.93;5.15;;;;;;;11.78;77.76;97133.19;1692678;85;21029;-71
2021/08/27 01:31:23;;;;;;;8.50;4.95;;;;;;;11.76;77.93;97140.38;1692493;85;21039;-71
2021/08/27 01:34:07;;;;;;;8.80;5.12;;;;;;;11.78;77.64;97146.45;1692139;83;21049;-71
2021/08/27 01:36:37;;;;;;;9.80;5.08;;;;;;;11.73;78.01;97154.66;1691813;84;21088;-71
2021/08/27 01:39:07;;;;;;;9.83;5.42;;;;;;;11.70;77.96;97163.20;1691879;84;21028;-71
2021/08/27 01:41:35;;;;;;;12.07;6.00;;;;;;;11.66;78.35;97161.66;1699158;83;20979;-70
2021/08/27 01:44:07;;;;;;;7.92;5.00;;;;;;;11.63;79.14;97162.66;1721310;83;20999;-71
2021/08/27 01:46:37;;;;;;;8.83;4.90;;;;;;;11.61;79.39;97152.57;1721411;83;21038;-71
2021/08/27 01:49:06;;;;;;;9.08;5.40;;;;;;;11.60;79.25;97149.08;1720594;83;21401;-71
2021/08/27 01:51:35;;;;;;;9.65;4.83;;;;;;;11.59;78.24;97157.95;1714620;83;21036;-72
2021/08/27 01:54:04;;;;;;;9.78;5.25;;;;;;;11.59;78.45;97159.76;1692064;85;21008;-72
2021/08/27 01:56:33;;;;;;;9.00;5.22;;;;;;;11.61;78.53;97162.73;1691956;85;21458;-72
2021/08/27 01:59:01;;;;;;;8.18;4.65;;;;;;;11.64;79.31;97169.69;1691768;84;21514;-72
2021/08/27 02:01:29;;;;;;;8.05;4.87;;;;;;;11.67;79.42;97172.17;1691775;85;21055;-72
2021/08/27 02:03:57;;;;;;;8.55;4.50;;;;;;;11.69;79.60;97178.74;1688376;83;21068;-72
2021/08/27 02:06:25;;;;;;;8.45;4.55;;;;;;;11.72;79.74;97179.94;1717703;83;21019;-72
2021/08/27 02:08:53;;;;;;;7.42;4.92;;;;;;;11.72;80.38;97174.14;1768371;81;21038;-72
2021/08/27 02:11:20;;;;;;;8.73;5.42;;;;;;;11.74;79.97;97174.08;1768400;81;20956;-72
2021/08/27 02:13:49;;;;;;;8.23;4.65;;;;;;;11.80;79.94;97172.48;1768282;81;21055;-72
2021/08/27 02:16:17;;;;;;;10.50;4.83;;;;;;;11.86;79.90;97173.95;1757423;81;20951;-72
2021/08/27 02:18:44;;;;;;;8.50;4.78;;;;;;;11.89;79.61;97175.99;1738881;82;21034;-71
2021/08/27 02:21:12;;;;;;;7.00;4.55;;;;;;;11.91;79.57;97169.77;1739170;82;21457;-71
2021/08/27 02:23:42;;;;;;;8.00;4.75;;;;;;;11.94;79.89;97170.93;1739659;82;21003;-71
2021/08/27 02:26:12;;;;;;;9.50;5.45;;;;;;;11.96;80.00;97166.42;1710497;84;21005;-72
2021/08/27 02:28:40;;;;;;;9.10;4.65;;;;;;;11.97;79.75;97162.83;1710413;84;21085;-72
2021/08/27 02:31:08;;;;;;;11.85;4.92;;;;;;;11.95;79.53;97162.89;1710521;84;21060;-72
2021/08/27 02:33:37;;;;;;;7.55;5.05;;;;;;;11.91;79.58;97165.79;1710297;84;21017;-72
2021/08/27 02:36:08;;;;;;;8.95;4.85;;;;;;;11.82;79.29;97160.44;1766903;80;21016;-72
2021/08/27 02:38:36;;;;;;;12.75;5.35;;;;;;;11.77;79.03;97148.72;1768327;81;20976;-72
2021/08/27 02:41:03;;;;;;;7.75;4.78;;;;;;;11.73;78.79;97152.00;1768308;81;21389;-71
2021/08/27 02:43:29;;;;;;;11.25;5.25;;;;;;;11.69;80.10;97153.53;1751550;81;21038;-71
2021/08/27 02:45:56;;;;;;;8.30;5.37;;;;;;;11.63;79.14;97150.72;1739991;82;20964;-70
2021/08/27 02:48:22;;;;;;;8.65;4.67;;;;;;;11.54;79.91;97158.63;1739600;82;21075;-70
2021/08/27 02:50:54;;;;;;;8.58;5.30;;;;;;;11.47;78.95;97153.23;1709418;84;21023;-70
2021/08/27 02:53:28;;;;;;;8.03;4.78;;;;;;;11.40;78.96;97155.76;1753532;81;21449;-71
2021/08/27 02:56:03;;;;;;;8.88;5.25;;;;;;;11.30;80.10;97160.16;1768429;81;21020;-71
2021/08/27 02:58:33;;;;;;;10.78;5.33;;;;;;;11.22;79.65;97152.56;1767916;81;21036;-70
2021/08/27 03:01:08;;;;;;;12.00;5.67;;;;;;;11.18;80.97;97158.09;1768310;81;21422;-71
2021/08/27 03:03:38;;;;;;;8.70;4.85;;;;;;;11.12;80.70;97157.05;1757059;81;20985;-71
2021/08/27 03:06:21;;;;;;;9.20;5.30;;;;;;;11.04;82.68;97152.94;1726343;82;20996;-72
2021/08/27 03:08:53;;;;;;;7.90;5.45;;;;;;;11.02;82.80;97160.11;1700712;83;21075;-71
2021/08/27 03:11:28;;;;;;;9.98;4.85;;;;;;;11.01;81.12;97165.48;1722051;83;21005;-71
2021/08/27 03:14:04;;;;;;;9.55;5.30;;;;;;;11.00;81.58;97158.46;1722185;83;21012;-71
2021/08/27 03:16:30;;;;;;;9.18;5.30;;;;;;;10.97;81.21;97154.16;1721935;82;21028;-71
2021/08/27 03:19:11;;;;;;;8.75;4.90;;;;;;;10.96;81.05;97141.80;1739809;82;21006;-72
2021/08/27 03:21:49;;;;;;;8.90;5.80;;;;;;;10.96;81.13;97140.03;1722908;82;21024;-71
2021/08/27 03:24:23;;;;;;;9.43;5.10;;;;;;;11.00;81.05;97139.91;1715165;83;20993;-71
2021/08/27 03:26:55;;;;;;;9.68;5.35;;;;;;;11.00;81.06;97138.09;1692095;85;21040;-71
2021/08/27 03:29:23;;;;;;;7.25;5.08;;;;;;;11.00;80.75;97135.44;1709363;82;20986;-72
2021/08/27 03:31:50;;;;;;;7.90;5.33;;;;;;;10.98;80.68;97143.94;1727036;81;21481;-72
2021/08/27 03:34:18;;;;;;;11.25;5.70;;;;;;;10.96;80.73;97137.83;1722143;83;21454;-72
2021/08/27 03:36:45;;;;;;;8.28;5.22;;;;;;;10.96;81.08;97144.00;1721945;83;21064;-72
2021/08/27 03:39:12;;;;;;;9.48;5.35;;;;;;;10.96;81.00;97147.98;1722107;83;21013;-71
2021/08/27 03:41:41;;;;;;;9.00;5.20;;;;;;;10.98;80.95;97162.50;1731206;82;20994;-72
2021/08/27 03:44:09;;;;;;;8.98;5.33;;;;;;;10.97;81.23;97156.81;1728586;82;21051;-72
2021/08/27 03:46:37;;;;;;;8.65;5.17;;;;;;;10.95;80.61;97149.37;1722196;83;21028;-72
2021/08/27 03:49:04;;;;;;;9.35;5.78;;;;;;;10.93;80.62;97148.59;1724358;82;21403;-72
2021/08/27 03:51:31;;;;;;;8.70;5.42;;;;;;;10.92;82.56;97159.65;1739685;81;21045;-72
2021/08/27 03:53:58;;;;;;;9.45;5.60;;;;;;;10.89;81.92;97156.28;1739862;82;21033;-72
2021/08/27 03:56:27;;;;;;;7.90;5.12;;;;;;;10.88;81.82;97151.91;1749747;81;21069;-72
2021/08/27 03:58:56;;;;;;;9.48;5.83;;;;;;;10.90;81.15;97161.52;1738485;81;21372;-72
2021/08/27 04:01:24;;;;;;;10.75;5.47;;;;;;;10.92;82.01;97170.73;1722110;83;21024;-72
2021/08/27 04:03:50;;;;;;;9.03;5.30;;;;;;;10.94;81.31;97172.84;1713938;83;21055;-72
2021/08/27 04:06:18;;;;;;;8.90;5.15;;;;;;;10.93;80.96;97173.30;1709117;84;21079;-72
2021/08/27 04:08:44;;;;;;;13.03;5.83;;;;;;;10.99;81.50;97166.87;1729375;81;20935;-72
2021/08/27 04:11:17;;;;;;;10.82;5.17;;;;;;;11.03;80.95;97167.58;1723079;82;21020;-72
2021/08/27 04:13:44;;;;;;;9.30;5.70;;;;;;;11.06;81.52;97170.11;1709321;84;21389;-72
2021/08/27 04:16:11;;;;;;;11.08;4.87;;;;;;;11.13;81.44;97162.74;1709319;84;21433;-73
2021/08/27 04:18:38;;;;;;;10.90;5.30;;;;;;;11.19;81.43;97159.80;1727093;82;21425;-72
2021/08/27 04:21:05;;;;;;;10.38;5.05;;;;;;;11.28;81.78;97159.38;1715256;81;21044;-72
2021/08/27 04:23:31;;;;;;;8.45;4.95;;;;;;;11.33;81.73;97162.69;1712096;82;21000;-72
2021/08/27 04:25:58;;;;;;;8.18;5.05;;;;;;;11.43;81.63;97167.12;1709256;84;21078;-72
2021/08/27 04:28:24;;;;;;;7.60;4.83;;;;;;;11.55;81.82;97162.16;1709299;84;21073;-72
2021/08/27 04:30:51;;;;;;;8.73;4.85;;;;;;;11.58;81.44;97160.21;1732305;82;20987;-72
2021/08/27 04:33:18;;;;;;;12.23;4.67;;;;;;;11.60;81.42;97157.49;1739561;82;21477;-72
2021/08/27 04:35:45;;;;;;;11.08;5.35;;;;;;;11.62;81.65;97160.47;1739439;82;21440;-72
2021/08/27 04:38:11;;;;;;;9.95;4.78;;;;;;;11.65;81.20;97161.23;1739523;82;20971;-72
2021/08/27 04:40:38;;;;;;;9.20;4.72;;;;;;;11.62;81.03;97164.45;1739564;82;20998;-72
2021/08/27 04:43:05;;;;;;;14.98;6.28;;;;;;;11.67;81.01;97158.06;1717199;82;21470;-72
2021/08/27 04:45:31;;;;;;;11.90;5.62;;;;;;;11.72;80.91;97157.37;1709525;84;21091;-72
2021/08/27 04:47:58;;;;;;;9.15;5.70;;;;;;;11.80;80.58;97157.87;1700438;82;21004;-72
2021/08/27 04:50:25;;;;;;;9.83;5.35;;;;;;;11.86;80.70;97158.03;1713525;82;21056;-72
2021/08/27 04:52:54;;;;;;;9.95;5.83;;;;;;;11.91;80.41;97170.61;1680441;84;21040;-72
2021/08/27 04:55:20;;;;;;;9.95;5.58;;;;;;;11.95;80.25;97172.19;1705736;83;21040;-72
2021/08/27 04:57:47;;;;;;;9.15;5.85;;;;;;;12.01;79.94;97173.70;1710663;83;21010;-72
2021/08/27 05:00:14;;;;;;;9.63;5.65;;;;;;;12.00;79.54;97180.80;1709083;82;20997;-72
2021/08/27 05:02:40;;;;;;;11.90;5.60;;;;;;;11.96;79.99;97188.51;1709146;83;20989;-73
2021/08/27 05:05:09;;;;;;;9.75;5.35;;;;;;;11.98;79.56;97197.73;1711186;83;21014;-73
2021/08/27 05:07:36;;;;;;;9.78;5.87;;;;;;;11.97;79.81;97191.59;1678562;85;21037;-73
2021/08/27 05:10:03;;;;;;;10.53;5.22;;;;;;;11.98;79.64;97181.80;1717493;83;21484;-72
2021/08/27 05:12:30;;;;;;;9.53;5.40;;;;;;;11.95;79.60;97182.81;1705819;82;21032;-71
2021/08/27 05:14:56;;;;;;;8.63;5.28;;;;;;;11.92;79.44;97180.78;1756715;82;21063;-72
2021/08/27 05:17:23;;;;;;;11.18;5.95;;;;;;;11.88;79.06;97180.08;1736052;82;21014;-72
2021/08/27 05:19:49;;;;;;;8.13;5.22;;;;;;;11.81;79.48;97190.13;1757090;82;20977;-73
2021/08/27 05:22:17;;;;;;;9.70;5.85;;;;;;;11.77;79.78;97187.67;1735878;83;21003;-72
2021/08/27 05:24:44;;;;;;;9.05;5.50;;;;;;;11.72;79.19;97183.44;1740531;82;21012;-73
2021/08/27 05:27:11;;;;;;;13.50;6.40;;;;;;;11.69;79.38;97172.11;1720746;83;21016;-73
2021/08/27 05:29:38;;;;;;;8.83;5.70;;;;;;;11.68;79.37;97173.92;1720796;83;20993;-72
2021/08/27 05:32:06;;;;;;;10.75;5.60;;;;;;;11.70;79.56;97176.02;1720934;83;21013;-73
2021/08/27 05:34:32;;;;;;;12.75;6.35;;;;;;;11.72;79.80;97175.47;1720891;83;21484;-72
2021/08/27 05:36:59;;;;;;;8.15;5.28;;;;;;;11.70;80.12;97174.70;1740589;82;20965;-72
2021/08/27 05:39:27;;;;;;;12.10;6.35;;;;;;;11.73;79.32;97181.66;1751457;81;20949;-72
2021/08/27 05:41:57;;;;;;;12.65;5.47;;;;;;;11.76;79.44;97174.88;1753938;81;20957;-72
2021/08/27 05:44:24;;;;;;;11.35;5.83;;;;;;;11.81;79.27;97183.94;1753301;82;21020;-73
2021/08/27 05:46:51;;;;;;;14.05;6.17;;;;;;;11.85;79.97;97190.83;1753853;82;20945;-72
2021/08/27 05:49:17;;;;;;;12.98;6.40;;;;;;;11.93;79.38;97187.80;1749001;82;20980;-72
2021/08/27 05:51:44;;;;;;;12.82;6.78;;;;;;;11.98;79.97;97205.25;1734183;82;21418;-72
2021/08/27 05:54:11;;;;;;;13.85;6.67;;;;;;;12.11;79.79;97213.52;1720771;83;21414;-72
2021/08/27 05:56:37;;;;;;;12.43;5.75;;;;;;;12.28;79.28;97206.50;1720790;83;21008;-72
2021/08/27 05:59:04;;;;;;;11.63;6.60;;;;;;;12.43;79.10;97188.95;1720811;83;20949;-73
2021/08/27 06:01:30;;;;;;;11.33;6.12;;;;;;;12.60;78.90;97189.88;1735728;82;21027;-72
2021/08/27 06:03:57;;;;;;;11.63;5.95;;;;;;;12.75;78.63;97194.41;1754955;82;20996;-73
2021/08/27 06:06:23;;;;;;;11.15;5.70;;;;;;;12.92;78.25;97182.06;1757027;81;21071;-73
2021/08/27 06:08:49;;;;;;;11.57;6.25;;;;;;;13.08;78.03;97166.13;1757106;82;20993;-72
2021/08/27 06:11:16;;;;;;;8.73;5.47;;;;;;;13.23;77.91;97151.62;1756911;82;21004;-73
2021/08/27 06:13:42;;;;;;;9.55;5.67;;;;;;;13.33;77.68;97128.42;1739576;82;21015;-72
2021/08/27 06:16:08;;;;;;;13.43;6.00;;;;;;;13.43;77.22;97121.27;1726187;83;21028;-72
2021/08/27 06:18:35;;;;;;;18.62;6.03;;;;;;;13.52;77.02;97119.92;1723675;83;21051;-72
2021/08/27 06:21:01;;;;;;;10.08;6.05;;;;;;;13.58;76.96;97119.11;1736474;82;20952;-73
2021/08/27 06:23:28;;;;;;;7.92;5.80;;;;;;;13.68;76.60;97127.92;1715977;81;20984;-72
2021/08/27 06:25:54;;;;;;;8.70;5.53;;;;;;;13.76;76.39;97130.14;1712612;83;20989;-73
2021/08/27 06:28:21;;;;;;;9.95;6.40;;;;;;;13.83;75.84;97136.36;1729986;82;21000;-73
2021/08/27 06:30:47;;;;;;;8.25;6.08;;;;;;;13.94;76.15;97142.42;1739745;82;21040;-73
2021/08/27 06:33:14;;;;;;;9.80;6.03;;;;;;;14.05;75.38;97146.27;1727104;82;21040;-73
2021/08/27 06:35:40;;;;;;;12.30;6.05;;;;;;;14.16;75.00;97139.84;1717614;83;21012;-73
2021/08/27 06:38:23;;;;;;;10.48;5.70;;;;;;;14.29;75.18;97144.47;1723429;82;21430;-73
2021/08/27 06:40:57;;;;;;;7.95;5.10;;;;;;;14.43;75.06;97140.52;1727343;82;20978;-73
2021/08/27 06:43:27;;;;;;;;;;;;;;;14.63;74.13;97142.47;1727059;83;21507;-73
2021/08/27 06:45:57;;;;;;;9.93;5.35;;;;;;;14.81;74.45;97135.20;1724922;82;20117;-73
2021/08/27 06:48:24;;;;;;;10.30;5.50;;;;;;;14.98;73.59;97127.96;1725838;82;21055;-74
2021/08/27 06:50:50;;;;;;;8.98;5.37;;;;;;;15.13;71.16;97111.02;1729239;82;20969;-73
2021/08/27 06:53:17;;;;;;;11.28;5.62;;;;;;;15.31;71.86;97108.13;1726252;83;21502;-73
2021/08/27 06:55:43;;;;;;;11.05;5.62;;;;;;;15.50;71.72;97114.52;1726279;82;21027;-73
2021/08/27 06:58:10;;;;;;;8.88;6.03;;;;;;;15.64;70.06;97110.95;1726272;83;20980;-73
2021/08/27 07:00:37;;;;;;;9.93;5.42;;;;;;;15.82;70.14;97117.40;1726092;82;21055;-73
2021/08/27 07:03:04;;;;;;;10.03;5.28;;;;;;;15.96;68.54;97115.18;1749821;82;22267;-73
2021/08/27 07:05:30;;;;;;;9.13;5.97;;;;;;;16.08;69.33;97114.85;1752307;82;21016;-75
2021/08/27 07:07:58;;;;;;;16.10;5.55;;;;;;;16.22;68.53;97113.45;1752688;82;21055;-74
2021/08/27 07:10:33;;;;;;;11.43;5.62;;;;;;;16.36;68.79;97102.32;1734343;82;21479;-75
2021/08/27 07:13:04;;;;;;;8.85;5.08;;;;;;;16.52;68.28;97090.57;1723293;82;21016;-75
2021/08/27 07:15:33;;;;;;;9.60;4.85;;;;;;;16.66;65.68;97092.28;1718504;83;21028;-74
2021/08/27 07:18:00;;;;;;;8.35;4.97;;;;;;;16.79;66.73;97095.83;1719486;82;21044;-75
2021/08/27 07:20:27;;;;;;;12.63;7.20;;;;;;;16.93;67.28;97087.33;1725991;82;21056;-75
2021/08/27 07:22:54;;;;;;;12.40;6.47;;;;;;;17.05;66.13;97077.58;1718887;83;21421;-75
2021/08/27 07:25:21;;;;;;;13.15;5.55;;;;;;;17.16;63.58;97079.03;1718380;83;21442;-75
2021/08/27 07:27:49;;;;;;;11.95;5.70;;;;;;;17.24;60.99;97094.55;1718747;83;21489;-74
2021/08/27 07:30:17;;;;;;;10.72;5.30;;;;;;;17.28;61.78;97102.23;1736810;82;20984;-74
2021/08/27 07:32:45;;;;;;;8.60;5.80;;;;;;;17.34;62.38;97102.77;1753607;82;21418;-74
2021/08/27 07:35:12;;;;;;;13.32;5.62;;;;;;;17.41;62.64;97100.03;1738637;81;21394;-74
2021/08/27 07:37:41;;;;;;;9.78;5.40;;;;;;;17.47;61.20;97108.95;1718903;83;21099;-74
2021/08/27 07:40:12;;;;;;;11.45;5.62;;;;;;;17.57;62.50;97116.33;1718748;82;21043;-74
2021/08/27 07:42:38;;;;;;;7.05;4.97;;;;;;;17.64;60.48;97125.15;1685347;83;21520;-74
2021/08/27 07:45:06;;;;;;;10.05;5.37;;;;;;;17.76;61.12;97138.14;1703660;83;21012;-76
2021/08/27 07:47:32;;;;;;;9.33;5.55;;;;;;;17.90;62.47;97134.44;1727357;82;21020;-75
2021/08/27 07:49:59;;;;;;;11.63;6.10;;;;;;;18.03;61.74;97146.95;1720507;83;21414;-75
2021/08/27 07:52:25;;;;;;;9.65;6.78;;;;;;;18.10;61.48;97154.09;1720762;83;21036;-75
2021/08/27 07:54:52;;;;;;;12.07;5.70;;;;;;;18.14;60.72;97156.92;1720692;83;21043;-75
2021/08/27 07:57:19;;;;;;;12.82;6.62;;;;;;;18.08;56.68;97162.25;1746517;80;20984;-75
2021/08/27 07:59:45;;;;;;;9.20;6.00;;;;;;;18.05;59.66;97165.98;1741294;82;21464;-75
2021/08/27 08:02:14;;;;;;;9.73;6.25;;;;;;;18.10;60.45;97153.59;1691973;83;21035;-74
2021/08/27 08:04:41;;;;;;;9.15;5.53;;;;;;;18.12;60.95;97142.28;1673772;84;21082;-74
2021/08/27 08:07:07;;;;;;;8.50;5.80;;;;;;;18.17;61.24;97140.59;1698622;84;21035;-74
2021/08/27 08:09:34;;;;;;;10.68;5.85;;;;;;;18.19;61.20;97142.69;1707951;82;21509;-75
2021/08/27 08:12:00;;;;;;;10.35;6.20;;;;;;;18.17;60.82;97142.80;1729936;81;21015;-75
2021/08/27 08:14:27;;;;;;;14.90;6.62;;;;;;;18.19;59.99;97143.52;1729478;82;21361;-74
2021/08/27 08:16:53;;;;;;;10.75;5.97;;;;;;;18.21;60.29;97143.41;1734173;82;21034;-75
2021/08/27 08:19:20;;;;;;;13.55;5.95;;;;;;;18.24;60.72;97152.59;1748217;81;21462;-74
2021/08/27 08:21:48;;;;;;;13.28;6.37;;;;;;;18.25;60.73;97161.47;1738266;80;21082;-76
2021/08/27 08:24:14;;;;;;;11.65;6.60;;;;;;;18.25;60.30;97154.77;1738867;81;20999;-74
2021/08/27 08:26:41;;;;;;;11.00;6.05;;;;;;;18.23;59.95;97153.53;1738717;82;21051;-74
2021/08/27 08:29:07;;;;;;;12.23;6.53;;;;;;;18.23;59.40;97151.35;1707494;84;21118;-74
2021/08/27 08:31:34;;;;;;;15.32;7.15;;;;;;;18.18;59.62;97144.50;1740684;81;21429;-74
2021/08/27 08:34:02;;;;;;;10.72;6.33;;;;;;;18.17;59.30;97141.92;1754137;81;21032;-74
2021/08/27 08:36:29;;;;;;;13.72;6.75;;;;;;;18.17;60.00;97149.50;1741518;81;21512;-74
2021/08/27 08:38:55;;;;;;;12.43;5.75;;;;;;;18.17;60.15;97156.67;1739316;82;21002;-75
2021/08/27 08:41:24;;;;;;;12.75;6.15;;;;;;;18.18;60.15;97159.72;1750717;81;20971;-75
2021/08/27 08:43:50;;;;;;;13.20;7.08;;;;;;;18.15;60.41;97162.14;1747358;81;21046;-74
2021/08/27 08:46:20;;;;;;;13.35;7.08;;;;;;;18.13;59.95;97173.95;1738677;81;20983;-73
2021/08/27 08:48:50;;;;;;;12.73;7.33;;;;;;;18.07;60.09;97173.95;1744258;81;21067;-74
2021/08/27 08:51:18;;;;;;;10.35;6.33;;;;;;;18.04;60.00;97174.13;1735563;82;21004;-73
2021/08/27 08:53:49;;;;;;;13.48;7.15;;;;;;;18.01;60.21;97176.55;1713772;82;20945;-74
2021/08/27 08:56:20;;;;;;;13.35;7.05;;;;;;;18.01;60.56;97170.32;1767312;81;21112;-74
2021/08/27 08:58:46;;;;;;;16.80;7.75;;;;;;;18.01;60.81;97167.64;1747255;81;21417;-74
2021/08/27 09:01:22;;;;;;;15.15;7.85;;;;;;;18.00;61.12;97161.44;1742428;81;20988;-73
2021/08/27 09:03:47;;;;;;;12.40;6.65;;;;;;;17.99;61.21;97151.69;1701924;83;21103;-72
2021/08/27 09:06:15;;;;;;;17.30;7.35;;;;;;;17.99;61.22;97140.97;1736307;82;21033;-74
2021/08/27 09:08:49;;;;;;;11.97;7.40;;;;;;;18.00;61.07;97140.47;1736730;82;20988;-74
2021/08/27 09:11:19;;;;;;;;;;;;;;;18.00;61.27;97145.35;1756186;81;21468;-74
2021/08/27 09:13:48;;;;;;;13.72;7.40;;;;;;;17.99;61.39;97154.38;1744256;81;20459;-72
2021/08/27 09:16:16;;;;;;;18.40;8.15;;;;;;;17.97;61.33;97151.44;1722359;82;21039;-73
2021/08/27 09:18:48;;;;;;;17.07;8.15;;;;;;;17.99;61.50;97150.35;1736937;82;21580;-72
2021/08/27 09:21:46;;;;;;;16.25;7.85;;;;;;;18.01;61.92;97144.38;1718415;81;20987;-75
2021/08/27 09:24:24;;;;;;;17.92;8.80;;;;;;;18.02;61.82;97138.04;1757436;81;21023;-71
2021/08/27 09:27:01;;;;;;;16.07;8.38;;;;;;;18.03;61.80;97141.59;1742088;81;21413;-72
2021/08/27 09:29:39;;;;;;;16.40;8.18;;;;;;;18.04;62.45;97142.83;1738353;82;21042;-73
2021/08/27 09:32:28;;;;;;;18.12;8.58;;;;;;;18.04;62.38;97140.14;1742881;81;21050;-72
2021/08/27 09:35:10;;;;;;;18.70;9.50;;;;;;;17.98;62.49;97137.89;1766484;81;20996;-72
2021/08/27 09:37:52;;;;;;;16.90;10.90;;;;;;;17.89;62.69;97136.75;1759137;81;20984;-73
2021/08/27 09:40:28;;;;;;;17.48;9.88;;;;;;;17.80;63.70;97140.11;1757946;81;21078;-73
2021/08/27 09:42:57;;;;;;;15.08;8.55;;;;;;;17.77;64.23;97134.98;1746585;81;20984;-74
2021/08/27 09:45:35;;;;;;;13.60;8.08;;;;;;;17.72;64.72;97145.19;1736056;82;21031;-74
2021/08/27 09:48:09;;;;;;;14.10;8.55;;;;;;;17.71;65.36;97146.13;1744218;81;21640;-76
2021/08/27 09:50:44;;;;;;;16.50;9.10;;;;;;;17.75;67.36;97159.69;1738363;82;21059;-75
2021/08/27 09:53:12;;;;;;;;;;;;;;;17.71;66.94;97157.72;1749406;81;20979;-74
2021/08/27 09:55:57;;;;;;;17.65;10.05;;;;;;;17.71;66.88;97156.38;1743373;81;20204;-74
2021/08/27 09:58:26;;;;;;;19.60;8.70;;;;;;;17.70;66.58;97161.84;1741720;81;21488;-73
2021/08/27 10:01:10;;;;;;;17.27;9.35;;;;;;;17.66;67.19;97152.67;1740855;81;21019;-74
2021/08/27 10:03:37;;;;;;;16.20;9.03;;;;;;;17.52;67.69;97169.75;1707111;84;21051;-73
2021/08/27 10:06:04;;;;;;;18.27;10.10;;;;;;;17.52;67.69;97169.75;1711745;82;21696;-73
2021/08/27 10:08:37;;;;;;;16.32;9.90;;;;;;;17.43;68.41;97172.25;1710696;83;21052;-73
2021/08/27 10:11:24;;;;;;;16.27;9.35;;;;;;;17.35;68.17;97171.45;1680072;85;21470;-73
2021/08/27 10:13:53;;;;;;;15.50;9.23;;;;;;;17.23;69.09;97171.33;1701847;83;20997;-73
2021/08/27 10:16:20;;;;;;;31.15;20.88;;;;;;;17.12;69.51;97166.75;1707441;83;21359;-74
2021/08/27 10:18:46;;;;;;;22.35;11.45;;;;;;;17.01;69.71;97166.12;1678614;85;22136;-74
2021/08/27 10:21:13;;;;;;;14.43;7.37;;;;;;;16.91;69.76;97181.09;1710455;83;21060;-74
2021/08/27 10:23:40;;;;;;;11.30;6.80;;;;;;;16.71;75.40;97185.12;1709267;83;21024;-74
2021/08/27 10:26:21;;;;;;;12.05;7.10;;;;;;;16.60;77.18;97177.34;1721999;83;20978;-72
2021/08/27 10:28:49;;;;;;;10.80;6.45;;;;;;;16.53;74.35;97174.69;1704724;83;21052;-74
2021/08/27 10:31:16;;;;;;;13.98;5.87;;;;;;;16.33;75.98;97182.73;1703847;83;20924;-72
2021/08/27 10:33:48;;;;;;;10.88;5.80;;;;;;;16.22;76.05;97184.30;1712750;82;20987;-73
2021/08/27 10:36:27;;;;;;;8.00;5.50;;;;;;;16.13;76.17;97194.72;1708539;83;21016;-73
2021/08/27 10:38:55;;;;;;;8.40;5.30;;;;;;;15.79;77.06;97206.62;1708668;84;21020;-73
2021/08/27 10:41:37;;;;;;;7.62;4.90;;;;;;;15.38;76.09;97201.58;1708962;83;21024;-73
2021/08/27 10:44:09;;;;;;;14.43;8.70;;;;;;;15.07;78.07;97206.61;1712493;83;21022;-74
2021/08/27 10:46:52;;;;;;;9.15;5.85;;;;;;;14.84;79.01;97215.05;1725976;82;21022;-73
2021/08/27 10:49:24;;;;;;;8.68;5.97;;;;;;;14.68;78.87;97224.85;1708896;83;21086;-74
2021/08/27 10:51:53;;;;;;;9.48;5.30;;;;;;;14.44;79.88;97226.66;1681957;84;20974;-74
2021/08/27 10:54:19;;;;;;;8.65;5.55;;;;;;;14.25;80.68;97227.25;1716967;83;20975;-74
2021/08/27 10:56:52;;;;;;;9.50;5.58;;;;;;;14.18;81.78;97237.02;1704803;84;21004;-73
2021/08/27 10:59:24;;;;;;;10.53;6.33;;;;;;;14.06;82.67;97236.77;1694145;84;21515;-74
2021/08/27 11:02:02;;;;;;;15.25;7.40;;;;;;;14.04;82.08;97245.30;1680327;85;21088;-74
2021/08/27 11:04:33;;;;;;;11.10;6.72;;;;;;;14.01;83.14;97233.97;1698103;84;21024;-74
2021/08/27 11:07:07;;;;;;;8.73;5.92;;;;;;;13.95;85.05;97242.69;1719327;82;21000;-73
2021/08/27 11:09:35;;;;;;;12.13;6.75;;;;;;;13.85;83.76;97255.67;1721954;82;21390;-74
2021/08/27 11:12:12;;;;;;;15.25;6.53;;;;;;;13.75;85.33;97251.80;1723145;82;21001;-73
2021/08/27 11:14:45;;;;;;;12.53;7.05;;;;;;;13.64;87.01;97244.39;1721292;82;21006;-74
2021/08/27 11:17:13;;;;;;;12.63;7.37;;;;;;;13.58;87.09;97245.56;1727992;82;20986;-74
2021/08/27 11:19:51;;;;;;;12.23;7.53;;;;;;;13.61;87.22;97256.52;1737219;82;21403;-75
2021/08/27 11:22:30;;;;;;;12.47;7.55;;;;;;;13.58;88.40;97265.53;1709919;83;21040;-74
2021/08/27 11:25:10;;;;;;;11.03;7.95;;;;;;;13.55;87.96;97274.16;1715321;83;21371;-74
2021/08/27 11:27:38;;;;;;;10.68;7.58;;;;;;;13.51;90.32;97285.91;1693943;82;21079;-74
2021/08/27 11:30:31;;;;;;;10.63;6.80;;;;;;;13.51;88.55;97275.27;1706995;83;21016;-75
2021/08/27 11:32:59;;;;;;;13.22;7.17;;;;;;;13.46;91.31;97267.02;1733955;82;21027;-74
2021/08/27 11:35:28;;;;;;;11.20;6.92;;;;;;;13.45;90.54;97248.00;1737384;82;20993;-74
2021/08/27 11:38:05;;;;;;;15.25;7.12;;;;;;;13.49;89.92;97258.53;1737822;81;21018;-73
2021/08/27 11:40:30;;;;;;;13.38;8.03;;;;;;;13.53;88.79;97258.27;1738843;81;21000;-73